sensor_id;sensor_type;location;lat;lon;timestamp;pressure;altitude;pressure_sealevel;temperature;humidity
75553;BME280;64136;53.118;17.996;2023-05-07T00:00:28;101748.52;;;7.71;74.16
75553;BME280;64136;53.118;17.996;2023-05-07T00:02:55;101747.96;;;7.71;74.16
75553;BME280;64136;53.118;17.996;2023-05-07T00:05:22;101744.86;;;7.68;74.26
75553;BME280;64136;53.118;17.996;2023-05-07T00:07:48;101745.71;;;7.54;75.02
75553;BME280;64136;53.118;17.996;2023-05-07T00:10:14;101744.02;;;7.41;75.37
75553;BME280;64136;53.118;17.996;2023-05-07T00:12:41;101743.89;;;7.35;75.61
75553;BME280;64136;53.118;17.996;2023-05-07T00:15:07;101741.27;;;7.29;75.94
75553;BME280;64136;53.118;17.996;2023-05-07T00:17:34;101740.44;;;7.21;76.92
75553;BME280;64136;53.118;17.996;2023-05-07T00:20:00;101738.48;;;7.17;76.88
75553;BME280;64136;53.118;17.996;2023-05-07T00:22:26;101744.88;;;7.10;77.74
75553;BME280;64136;53.118;17.996;2023-05-07T00:24:53;101743.67;;;7.03;77.90
75553;BME280;64136;53.118;17.996;2023-05-07T00:27:19;101746.10;;;6.93;78.26
75553;BME280;64136;53.118;17.996;2023-05-07T00:29:45;101747.48;;;6.88;77.69
75553;BME280;64136;53.118;17.996;2023-05-07T00:34:37;101752.77;;;6.83;78.09
75553;BME280;64136;53.118;17.996;2023-05-07T00:37:05;101756.03;;;6.80;78.44
75553;BME280;64136;53.118;17.996;2023-05-07T00:39:33;101758.59;;;6.77;78.80
75553;BME280;64136;53.118;17.996;2023-05-07T00:41:59;101763.79;;;6.73;78.86
75553;BME280;64136;53.118;17.996;2023-05-07T00:44:26;101767.57;;;6.70;78.92
75553;BME280;64136;53.118;17.996;2023-05-07T00:46:53;101766.03;;;6.69;78.61
75553;BME280;64136;53.118;17.996;2023-05-07T00:49:20;101767.70;;;6.61;78.24
75553;BME280;64136;53.118;17.996;2023-05-07T00:51:47;101764.14;;;6.56;78.52
75553;BME280;64136;53.118;17.996;2023-05-07T00:59:06;101775.29;;;6.54;78.51
75553;BME280;64136;53.118;17.996;2023-05-07T01:03:59;101774.17;;;6.55;77.77
75553;BME280;64136;53.118;17.996;2023-05-07T01:06:27;101773.44;;;6.58;77.78
75553;BME280;64136;53.118;17.996;2023-05-07T01:08:56;101769.27;;;6.61;77.56
75553;BME280;64136;53.118;17.996;2023-05-07T01:13:50;101771.17;;;6.68;77.41
75553;BME280;64136;53.118;17.996;2023-05-07T01:16:17;101774.10;;;6.70;77.23
75553;BME280;64136;53.118;17.996;2023-05-07T01:18:43;101774.12;;;6.69;77.16
75553;BME280;64136;53.118;17.996;2023-05-07T01:21:11;101772.61;;;6.67;76.94
75553;BME280;64136;53.118;17.996;2023-05-07T01:28:31;101775.59;;;6.56;77.19
75553;BME280;64136;53.118;17.996;2023-05-07T01:31:03;101781.80;;;6.47;77.70
75553;BME280;64136;53.118;17.996;2023-05-07T01:33:33;101780.02;;;6.30;78.83
75553;BME280;64136;53.118;17.996;2023-05-07T01:36:00;101782.77;;;6.20;79.93
75553;BME280;64136;53.118;17.996;2023-05-07T01:38:29;101784.52;;;6.14;80.89
75553;BME280;64136;53.118;17.996;2023-05-07T01:40:56;101788.27;;;6.12;81.25
75553;BME280;64136;53.118;17.996;2023-05-07T01:43:23;101789.27;;;6.07;81.25
75553;BME280;64136;53.118;17.996;2023-05-07T01:45:51;101793.85;;;6.00;81.05
75553;BME280;64136;53.118;17.996;2023-05-07T01:48:18;101794.50;;;5.96;80.95
75553;BME280;64136;53.118;17.996;2023-05-07T01:50:46;101795.85;;;5.92;81.02
75553;BME280;64136;53.118;17.996;2023-05-07T01:53:12;101794.15;;;5.88;81.14
75553;BME280;64136;53.118;17.996;2023-05-07T01:55:38;101791.63;;;5.83;81.22
75553;BME280;64136;53.118;17.996;2023-05-07T01:58:06;101793.66;;;5.79;80.97
75553;BME280;64136;53.118;17.996;2023-05-07T02:00:32;101796.14;;;5.78;80.51
75553;BME280;64136;53.118;17.996;2023-05-07T02:02:59;101795.34;;;5.76;80.12
75553;BME280;64136;53.118;17.996;2023-05-07T02:05:31;101795.48;;;5.63;80.15
75553;BME280;64136;53.118;17.996;2023-05-07T02:08:02;101799.85;;;5.50;81.43
75553;BME280;64136;53.118;17.996;2023-05-07T02:10:30;101800.74;;;5.42;81.94
75553;BME280;64136;53.118;17.996;2023-05-07T02:12:56;101799.13;;;5.36;82.40
75553;BME280;64136;53.118;17.996;2023-05-07T02:15:22;101800.89;;;5.36;82.51
75553;BME280;64136;53.118;17.996;2023-05-07T02:18:02;101798.73;;;5.38;82.20
75553;BME280;64136;53.118;17.996;2023-05-07T02:20:29;101802.48;;;5.36;82.06
75553;BME280;64136;53.118;17.996;2023-05-07T02:22:56;101805.27;;;5.30;81.90
75553;BME280;64136;53.118;17.996;2023-05-07T02:25:22;101810.42;;;5.27;81.52
75553;BME280;64136;53.118;17.996;2023-05-07T02:27:49;101810.38;;;5.22;81.66
75553;BME280;64136;53.118;17.996;2023-05-07T02:30:16;101815.77;;;5.15;81.96
75553;BME280;64136;53.118;17.996;2023-05-07T02:32:43;101816.02;;;5.05;81.99
75553;BME280;64136;53.118;17.996;2023-05-07T02:35:09;101818.63;;;4.99;82.37
75553;BME280;64136;53.118;17.996;2023-05-07T02:37:35;101818.29;;;4.97;82.55
75553;BME280;64136;53.118;17.996;2023-05-07T02:40:02;101820.64;;;4.94;82.53
75553;BME280;64136;53.118;17.996;2023-05-07T02:42:30;101822.91;;;4.87;82.58
75553;BME280;64136;53.118;17.996;2023-05-07T02:44:57;101825.27;;;4.84;82.67
75553;BME280;64136;53.118;17.996;2023-05-07T02:47:24;101820.91;;;4.82;82.31
75553;BME280;64136;53.118;17.996;2023-05-07T02:49:56;101821.16;;;4.79;81.89
75553;BME280;64136;53.118;17.996;2023-05-07T02:52:22;101823.33;;;4.76;81.69
75553;BME280;64136;53.118;17.996;2023-05-07T02:54:49;101821.27;;;4.73;81.65
75553;BME280;64136;53.118;17.996;2023-05-07T02:57:15;101818.75;;;4.68;81.64
75553;BME280;64136;53.118;17.996;2023-05-07T03:02:08;101823.36;;;4.57;81.19
75553;BME280;64136;53.118;17.996;2023-05-07T03:04:34;101827.63;;;4.55;81.39
75553;BME280;64136;53.118;17.996;2023-05-07T03:07:01;101827.31;;;4.53;81.14
75553;BME280;64136;53.118;17.996;2023-05-07T03:09:27;101827.48;;;4.52;81.09
75553;BME280;64136;53.118;17.996;2023-05-07T03:11:54;101829.19;;;4.56;80.78
75553;BME280;64136;53.118;17.996;2023-05-07T03:16:47;101834.58;;;4.48;81.40
75553;BME280;64136;53.118;17.996;2023-05-07T03:19:13;101842.35;;;4.46;81.39
75553;BME280;64136;53.118;17.996;2023-05-07T03:21:39;101840.52;;;4.41;81.67
75553;BME280;64136;53.118;17.996;2023-05-07T03:24:06;101841.97;;;4.39;81.84
75553;BME280;64136;53.118;17.996;2023-05-07T03:26:32;101844.59;;;4.39;81.91
75553;BME280;64136;53.118;17.996;2023-05-07T03:28:58;101847.22;;;4.40;81.96
75553;BME280;64136;53.118;17.996;2023-05-07T03:31:25;101846.83;;;4.41;81.78
75553;BME280;64136;53.118;17.996;2023-05-07T03:33:57;101847.55;;;4.41;81.67
75553;BME280;64136;53.118;17.996;2023-05-07T03:36:24;101847.52;;;4.42;81.45
75553;BME280;64136;53.118;17.996;2023-05-07T03:41:20;101856.66;;;4.50;81.68
75553;BME280;64136;53.118;17.996;2023-05-07T03:43:47;101858.34;;;4.54;81.42
75553;BME280;64136;53.118;17.996;2023-05-07T03:46:13;101862.63;;;4.59;81.40
75553;BME280;64136;53.118;17.996;2023-05-07T03:48:40;101858.99;;;4.65;81.18
75553;BME280;64136;53.118;17.996;2023-05-07T03:51:07;101861.88;;;4.70;80.89
75553;BME280;64136;53.118;17.996;2023-05-07T03:53:33;101867.74;;;4.75;80.85
75553;BME280;64136;53.118;17.996;2023-05-07T03:55:59;101871.77;;;4.77;80.68
75553;BME280;64136;53.118;17.996;2023-05-07T03:58:26;101873.71;;;4.75;81.01
75553;BME280;64136;53.118;17.996;2023-05-07T04:00:53;101874.42;;;4.75;81.51
75553;BME280;64136;53.118;17.996;2023-05-07T04:03:22;101881.73;;;4.77;81.75
75553;BME280;64136;53.118;17.996;2023-05-07T04:05:49;101880.08;;;4.82;81.64
75553;BME280;64136;53.118;17.996;2023-05-07T04:08:15;101882.09;;;4.86;81.31
75553;BME280;64136;53.118;17.996;2023-05-07T04:10:45;101884.41;;;4.92;81.31
75553;BME280;64136;53.118;17.996;2023-05-07T04:13:12;101892.72;;;4.98;80.89
75553;BME280;64136;53.118;17.996;2023-05-07T04:15:39;101894.85;;;5.05;80.40
75553;BME280;64136;53.118;17.996;2023-05-07T04:18:08;101894.01;;;5.12;80.00
75553;BME280;64136;53.118;17.996;2023-05-07T04:20:35;101898.23;;;5.19;79.55
75553;BME280;64136;53.118;17.996;2023-05-07T04:23:03;101900.73;;;5.26;79.52
75553;BME280;64136;53.118;17.996;2023-05-07T04:25:29;101902.45;;;5.35;79.41
75553;BME280;64136;53.118;17.996;2023-05-07T04:28:02;101903.34;;;5.43;79.05
75553;BME280;64136;53.118;17.996;2023-05-07T04:30:28;101907.98;;;5.48;78.77
75553;BME280;64136;53.118;17.996;2023-05-07T04:32:54;101910.54;;;5.51;78.36
75553;BME280;64136;53.118;17.996;2023-05-07T04:35:22;101909.40;;;5.55;77.91
75553;BME280;64136;53.118;17.996;2023-05-07T04:37:49;101910.46;;;5.54;77.24
75553;BME280;64136;53.118;17.996;2023-05-07T04:40:15;101911.91;;;5.60;77.46
75553;BME280;64136;53.118;17.996;2023-05-07T04:42:42;101913.14;;;5.68;77.33
75553;BME280;64136;53.118;17.996;2023-05-07T04:45:09;101915.43;;;5.75;76.99
75553;BME280;64136;53.118;17.996;2023-05-07T04:47:38;101915.98;;;5.81;76.95
75553;BME280;64136;53.118;17.996;2023-05-07T04:50:06;101920.77;;;5.87;77.13
75553;BME280;64136;53.118;17.996;2023-05-07T04:52:33;101924.73;;;5.92;77.14
75553;BME280;64136;53.118;17.996;2023-05-07T04:55:00;101925.45;;;5.99;76.56
75553;BME280;64136;53.118;17.996;2023-05-07T04:59:53;101923.92;;;6.03;75.35
75553;BME280;64136;53.118;17.996;2023-05-07T05:02:20;101926.21;;;6.03;75.22
75553;BME280;64136;53.118;17.996;2023-05-07T05:04:46;101929.95;;;6.08;75.46
75553;BME280;64136;53.118;17.996;2023-05-07T05:07:13;101932.90;;;6.17;75.59
75553;BME280;64136;53.118;17.996;2023-05-07T05:09:39;101932.88;;;6.25;75.28
75553;BME280;64136;53.118;17.996;2023-05-07T05:12:06;101931.72;;;6.36;75.72
75553;BME280;64136;53.118;17.996;2023-05-07T05:14:34;101934.52;;;6.42;75.12
75553;BME280;64136;53.118;17.996;2023-05-07T05:17:01;101935.74;;;6.50;75.14
75553;BME280;64136;53.118;17.996;2023-05-07T05:19:27;101937.84;;;6.58;74.96
75553;BME280;64136;53.118;17.996;2023-05-07T05:21:54;101937.17;;;6.63;74.15
75553;BME280;64136;53.118;17.996;2023-05-07T05:24:20;101945.92;;;6.64;73.75
75553;BME280;64136;53.118;17.996;2023-05-07T05:26:46;101950.40;;;6.68;73.91
75553;BME280;64136;53.118;17.996;2023-05-07T05:29:12;101944.39;;;6.68;73.89
75553;BME280;64136;53.118;17.996;2023-05-07T05:31:40;101948.13;;;6.74;74.58
75553;BME280;64136;53.118;17.996;2023-05-07T05:34:07;101949.75;;;6.79;74.20
75553;BME280;64136;53.118;17.996;2023-05-07T05:36:34;101955.04;;;6.85;74.05
75553;BME280;64136;53.118;17.996;2023-05-07T05:39:01;101948.21;;;6.90;73.68
75553;BME280;64136;53.118;17.996;2023-05-07T05:41:28;101948.13;;;6.93;73.73
75553;BME280;64136;53.118;17.996;2023-05-07T05:43:55;101951.18;;;7.03;73.77
75553;BME280;64136;53.118;17.996;2023-05-07T05:46:22;101952.55;;;7.11;73.34
75553;BME280;64136;53.118;17.996;2023-05-07T05:48:50;101946.12;;;7.20;73.72
75553;BME280;64136;53.118;17.996;2023-05-07T05:51:16;101951.82;;;7.30;73.93
75553;BME280;64136;53.118;17.996;2023-05-07T05:53:42;101951.86;;;7.40;73.81
75553;BME280;64136;53.118;17.996;2023-05-07T05:58:35;101957.83;;;7.58;73.13
75553;BME280;64136;53.118;17.996;2023-05-07T06:01:04;101953.73;;;7.65;72.53
75553;BME280;64136;53.118;17.996;2023-05-07T06:03:31;101959.16;;;7.73;72.69
75553;BME280;64136;53.118;17.996;2023-05-07T06:06:00;101962.75;;;7.77;72.36
75553;BME280;64136;53.118;17.996;2023-05-07T06:08:29;101964.98;;;7.84;72.64
75553;BME280;64136;53.118;17.996;2023-05-07T06:10:56;101959.71;;;7.94;72.48
75553;BME280;64136;53.118;17.996;2023-05-07T06:13:23;101957.66;;;8.03;72.24
75553;BME280;64136;53.118;17.996;2023-05-07T06:15:50;101959.59;;;8.14;72.58
75553;BME280;64136;53.118;17.996;2023-05-07T06:18:16;101957.78;;;8.26;71.56
75553;BME280;64136;53.118;17.996;2023-05-07T06:20:42;101955.67;;;8.38;71.50
75553;BME280;64136;53.118;17.996;2023-05-07T06:23:14;101961.89;;;8.47;70.51
75553;BME280;64136;53.118;17.996;2023-05-07T06:25:40;101960.98;;;8.57;71.34
75553;BME280;64136;53.118;17.996;2023-05-07T06:28:06;101964.48;;;8.64;69.83
75553;BME280;64136;53.118;17.996;2023-05-07T06:30:35;101962.36;;;8.64;68.48
75553;BME280;64136;53.118;17.996;2023-05-07T06:33:02;101964.02;;;8.67;68.76
75553;BME280;64136;53.118;17.996;2023-05-07T06:35:28;101970.41;;;8.76;68.52
75553;BME280;64136;53.118;17.996;2023-05-07T06:40:24;101967.77;;;8.91;68.18
75553;BME280;64136;53.118;17.996;2023-05-07T06:42:51;101967.13;;;8.94;66.19
75553;BME280;64136;53.118;17.996;2023-05-07T06:45:23;101969.63;;;8.93;66.52
75553;BME280;64136;53.118;17.996;2023-05-07T06:47:52;101971.99;;;9.01;67.98
75553;BME280;64136;53.118;17.996;2023-05-07T06:50:19;101970.65;;;9.09;65.77
75553;BME280;64136;53.118;17.996;2023-05-07T06:52:45;101974.88;;;9.18;65.57
75553;BME280;64136;53.118;17.996;2023-05-07T06:55:12;101975.77;;;9.28;66.68
75553;BME280;64136;53.118;17.996;2023-05-07T06:57:38;101976.91;;;9.35;65.72
75553;BME280;64136;53.118;17.996;2023-05-07T07:00:05;101977.93;;;9.41;65.23
75553;BME280;64136;53.118;17.996;2023-05-07T07:02:41;101982.96;;;9.38;63.52
75553;BME280;64136;53.118;17.996;2023-05-07T07:05:08;101989.04;;;9.33;63.54
75553;BME280;64136;53.118;17.996;2023-05-07T07:07:35;101996.48;;;9.41;65.24
75553;BME280;64136;53.118;17.996;2023-05-07T07:10:01;101994.63;;;9.43;62.23
75553;BME280;64136;53.118;17.996;2023-05-07T07:12:30;101995.65;;;9.44;62.18
75553;BME280;64136;53.118;17.996;2023-05-07T07:14:56;101996.88;;;9.44;61.89
75553;BME280;64136;53.118;17.996;2023-05-07T07:17:23;101994.75;;;9.49;62.79
75553;BME280;64136;53.118;17.996;2023-05-07T07:19:50;101995.91;;;9.57;62.09
75553;BME280;64136;53.118;17.996;2023-05-07T07:24:46;101997.13;;;9.75;62.59
75553;BME280;64136;53.118;17.996;2023-05-07T07:27:13;101993.21;;;9.85;63.19
75553;BME280;64136;53.118;17.996;2023-05-07T07:29:39;101997.88;;;9.97;63.66
75553;BME280;64136;53.118;17.996;2023-05-07T07:32:05;102001.75;;;10.02;62.83
75553;BME280;64136;53.118;17.996;2023-05-07T07:34:32;102000.58;;;10.00;61.63
75553;BME280;64136;53.118;17.996;2023-05-07T07:37:00;102000.84;;;9.98;60.96
75553;BME280;64136;53.118;17.996;2023-05-07T07:39:32;102001.01;;;10.02;62.29
75553;BME280;64136;53.118;17.996;2023-05-07T07:41:59;102001.87;;;10.11;62.04
75553;BME280;64136;53.118;17.996;2023-05-07T07:44:27;102000.15;;;10.20;62.53
75553;BME280;64136;53.118;17.996;2023-05-07T07:46:57;102004.15;;;10.30;61.65
75553;BME280;64136;53.118;17.996;2023-05-07T07:49:24;102004.01;;;10.30;56.79
75553;BME280;64136;53.118;17.996;2023-05-07T07:51:51;102002.35;;;10.31;55.47
75553;BME280;64136;53.118;17.996;2023-05-07T07:54:17;102005.01;;;10.35;56.15
75553;BME280;64136;53.118;17.996;2023-05-07T07:56:44;102004.19;;;10.38;55.87
75553;BME280;64136;53.118;17.996;2023-05-07T07:59:16;102005.43;;;10.47;57.02
75553;BME280;64136;53.118;17.996;2023-05-07T08:01:45;102005.23;;;10.55;55.53
75553;BME280;64136;53.118;17.996;2023-05-07T08:04:11;102006.90;;;10.62;54.68
75553;BME280;64136;53.118;17.996;2023-05-07T08:06:39;102007.30;;;10.65;53.69
75553;BME280;64136;53.118;17.996;2023-05-07T08:11:33;102001.75;;;10.79;53.20
75553;BME280;64136;53.118;17.996;2023-05-07T08:13:59;102004.48;;;10.77;51.13
75553;BME280;64136;53.118;17.996;2023-05-07T08:16:26;102005.01;;;10.86;52.42
75553;BME280;64136;53.118;17.996;2023-05-07T08:18:53;102003.52;;;10.95;52.69
75553;BME280;64136;53.118;17.996;2023-05-07T08:23:46;102006.60;;;11.06;52.05
75553;BME280;64136;53.118;17.996;2023-05-07T08:26:12;102005.20;;;11.17;51.95
75553;BME280;64136;53.118;17.996;2023-05-07T08:28:38;102007.81;;;11.18;50.69
75553;BME280;64136;53.118;17.996;2023-05-07T08:31:05;102008.75;;;11.17;50.13
75553;BME280;64136;53.118;17.996;2023-05-07T08:33:35;102008.25;;;11.20;50.59
75553;BME280;64136;53.118;17.996;2023-05-07T08:36:01;102007.75;;;11.27;49.97
75553;BME280;64136;53.118;17.996;2023-05-07T08:38:27;102010.64;;;11.34;49.31
75553;BME280;64136;53.118;17.996;2023-05-07T08:40:53;102013.15;;;11.42;48.96
75553;BME280;64136;53.118;17.996;2023-05-07T08:43:21;102016.39;;;11.52;48.44
75553;BME280;64136;53.118;17.996;2023-05-07T08:45:52;102016.73;;;11.68;50.23
75553;BME280;64136;53.118;17.996;2023-05-07T08:48:22;102016.13;;;11.85;49.58
75553;BME280;64136;53.118;17.996;2023-05-07T08:50:58;102014.87;;;11.96;48.06
75553;BME280;64136;53.118;17.996;2023-05-07T08:53:25;102015.34;;;11.97;47.53
75553;BME280;64136;53.118;17.996;2023-05-07T08:55:52;102021.16;;;12.02;47.52
75553;BME280;64136;53.118;17.996;2023-05-07T08:58:19;102019.45;;;12.12;47.94
75553;BME280;64136;53.118;17.996;2023-05-07T09:00:46;102023.42;;;12.14;47.42
75553;BME280;64136;53.118;17.996;2023-05-07T09:03:13;102020.43;;;12.20;47.29
75553;BME280;64136;53.118;17.996;2023-05-07T09:05:41;102020.76;;;12.29;46.81
75553;BME280;64136;53.118;17.996;2023-05-07T09:08:14;102025.78;;;12.35;46.15
75553;BME280;64136;53.118;17.996;2023-05-07T09:10:41;102022.42;;;12.31;44.91
75553;BME280;64136;53.118;17.996;2023-05-07T09:13:08;102022.90;;;12.46;46.58
75553;BME280;64136;53.118;17.996;2023-05-07T09:15:36;102021.77;;;12.62;47.35
75553;BME280;64136;53.118;17.996;2023-05-07T09:18:03;102022.23;;;12.74;45.75
75553;BME280;64136;53.118;17.996;2023-05-07T09:20:32;102021.81;;;12.85;44.88
75553;BME280;64136;53.118;17.996;2023-05-07T09:22:59;102016.08;;;12.93;44.96
75553;BME280;64136;53.118;17.996;2023-05-07T09:25:31;102018.37;;;13.10;46.50
75553;BME280;64136;53.118;17.996;2023-05-07T09:27:59;102019.95;;;13.25;45.38
75553;BME280;64136;53.118;17.996;2023-05-07T09:30:30;102017.92;;;13.46;46.02
75553;BME280;64136;53.118;17.996;2023-05-07T09:35:25;102020.48;;;13.51;43.23
75553;BME280;64136;53.118;17.996;2023-05-07T09:38:00;102023.30;;;13.48;42.76
75553;BME280;64136;53.118;17.996;2023-05-07T09:40:29;102026.14;;;13.48;42.68
75553;BME280;64136;53.118;17.996;2023-05-07T09:43:13;102017.27;;;13.58;43.62
75553;BME280;64136;53.118;17.996;2023-05-07T09:45:44;102017.58;;;13.71;43.89
75553;BME280;64136;53.118;17.996;2023-05-07T09:48:11;102023.38;;;13.76;43.34
75553;BME280;64136;53.118;17.996;2023-05-07T09:50:48;102024.19;;;13.96;44.24
75553;BME280;64136;53.118;17.996;2023-05-07T09:53:17;102024.78;;;14.05;43.76
75553;BME280;64136;53.118;17.996;2023-05-07T09:55:45;102035.08;;;14.06;43.36
75553;BME280;64136;53.118;17.996;2023-05-07T09:58:12;102038.38;;;14.01;42.43
75553;BME280;64136;53.118;17.996;2023-05-07T10:00:39;102040.15;;;14.01;42.88
75553;BME280;64136;53.118;17.996;2023-05-07T10:03:09;102043.77;;;14.16;42.92
75553;BME280;64136;53.118;17.996;2023-05-07T10:05:41;102047.21;;;14.24;42.77
75553;BME280;64136;53.118;17.996;2023-05-07T10:08:10;102046.88;;;14.43;43.62
75553;BME280;64136;53.118;17.996;2023-05-07T10:10:37;102045.54;;;14.54;42.86
75553;BME280;64136;53.118;17.996;2023-05-07T10:13:05;102042.16;;;14.56;42.01
75553;BME280;64136;53.118;17.996;2023-05-07T10:15:37;102052.26;;;14.52;41.24
75553;BME280;64136;53.118;17.996;2023-05-07T10:18:06;102042.60;;;14.61;42.35
75553;BME280;64136;53.118;17.996;2023-05-07T10:20:33;102043.75;;;14.60;41.38
75553;BME280;64136;53.118;17.996;2023-05-07T10:23:04;102049.13;;;14.44;40.95
75553;BME280;64136;53.118;17.996;2023-05-07T10:28:08;102044.55;;;14.24;41.90
75553;BME280;64136;53.118;17.996;2023-05-07T10:30:58;102045.71;;;14.28;42.15
75553;BME280;64136;53.118;17.996;2023-05-07T10:33:36;102044.41;;;14.29;42.25
75553;BME280;64136;53.118;17.996;2023-05-07T10:36:05;102038.61;;;14.60;42.77
75553;BME280;64136;53.118;17.996;2023-05-07T10:38:33;102047.53;;;14.69;41.98
75553;BME280;64136;53.118;17.996;2023-05-07T10:41:00;102047.02;;;14.71;41.14
75553;BME280;64136;53.118;17.996;2023-05-07T10:43:39;102043.34;;;14.76;41.23
75553;BME280;64136;53.118;17.996;2023-05-07T10:46:15;102048.23;;;14.78;41.12
75553;BME280;64136;53.118;17.996;2023-05-07T10:49:08;102045.64;;;14.85;41.16
75553;BME280;64136;53.118;17.996;2023-05-07T10:51:39;102043.86;;;14.55;40.71
75553;BME280;64136;53.118;17.996;2023-05-07T10:54:25;102039.31;;;14.66;41.34
75553;BME280;64136;53.118;17.996;2023-05-07T10:56:56;102037.48;;;14.87;41.00
75553;BME280;64136;53.118;17.996;2023-05-07T10:59:38;102046.64;;;14.89;40.96
75553;BME280;64136;53.118;17.996;2023-05-07T11:02:15;102041.19;;;14.76;40.27
75553;BME280;64136;53.118;17.996;2023-05-07T11:07:57;102045.08;;;14.74;41.40
75553;BME280;64136;53.118;17.996;2023-05-07T11:13:46;102052.91;;;14.80;40.45
75553;BME280;64136;53.118;17.996;2023-05-07T11:16:24;102050.70;;;15.05;39.36
75553;BME280;64136;53.118;17.996;2023-05-07T11:18:56;102049.38;;;15.26;40.20
75553;BME280;64136;53.118;17.996;2023-05-07T11:21:33;102044.53;;;15.38;39.67
75553;BME280;64136;53.118;17.996;2023-05-07T11:24:08;102043.39;;;15.63;40.43
75553;BME280;64136;53.118;17.996;2023-05-07T11:26:46;102045.73;;;15.71;39.74
75553;BME280;64136;53.118;17.996;2023-05-07T11:29:21;102054.98;;;15.49;38.38
75553;BME280;64136;53.118;17.996;2023-05-07T11:31:50;102047.58;;;15.70;38.75
75553;BME280;64136;53.118;17.996;2023-05-07T11:34:25;102045.23;;;15.96;38.58
75553;BME280;64136;53.118;17.996;2023-05-07T11:36:52;102045.06;;;16.63;38.43
75553;BME280;64136;53.118;17.996;2023-05-07T11:39:25;102043.91;;;17.35;36.70
75553;BME280;64136;53.118;17.996;2023-05-07T11:41:51;102045.84;;;18.06;35.85
75553;BME280;64136;53.118;17.996;2023-05-07T11:44:17;102037.45;;;18.73;35.09
75553;BME280;64136;53.118;17.996;2023-05-07T11:46:44;102040.48;;;18.49;33.57
75553;BME280;64136;53.118;17.996;2023-05-07T11:49:11;102043.95;;;17.95;34.04
75553;BME280;64136;53.118;17.996;2023-05-07T11:51:38;102046.46;;;18.04;34.45
75553;BME280;64136;53.118;17.996;2023-05-07T11:54:04;102048.10;;;18.19;34.35
75553;BME280;64136;53.118;17.996;2023-05-07T11:56:35;102048.64;;;18.33;33.69
75553;BME280;64136;53.118;17.996;2023-05-07T11:59:01;102053.80;;;18.14;33.53
75553;BME280;64136;53.118;17.996;2023-05-07T12:01:27;102051.66;;;17.72;34.34
75553;BME280;64136;53.118;17.996;2023-05-07T12:03:54;102052.95;;;17.18;35.43
75553;BME280;64136;53.118;17.996;2023-05-07T12:06:20;102053.20;;;16.54;36.18
75553;BME280;64136;53.118;17.996;2023-05-07T12:08:46;102049.27;;;17.32;36.55
75553;BME280;64136;53.118;17.996;2023-05-07T12:11:15;102047.27;;;18.54;34.75
75553;BME280;64136;53.118;17.996;2023-05-07T12:13:43;102046.77;;;19.56;32.79
75553;BME280;64136;53.118;17.996;2023-05-07T12:16:10;102047.56;;;20.56;31.38
75553;BME280;64136;53.118;17.996;2023-05-07T12:18:37;102044.97;;;20.40;30.46
75553;BME280;64136;53.118;17.996;2023-05-07T12:21:04;102043.70;;;20.80;30.37
75553;BME280;64136;53.118;17.996;2023-05-07T12:23:31;102042.91;;;21.06;28.98
75553;BME280;64136;53.118;17.996;2023-05-07T12:25:59;102044.55;;;21.54;27.85
75553;BME280;64136;53.118;17.996;2023-05-07T12:28:25;102046.16;;;21.99;27.36
75553;BME280;64136;53.118;17.996;2023-05-07T12:30:52;102044.94;;;22.65;28.09
75553;BME280;64136;53.118;17.996;2023-05-07T12:33:25;102038.46;;;23.41;27.78
75553;BME280;64136;53.118;17.996;2023-05-07T12:35:54;102040.33;;;24.09;27.17
75553;BME280;64136;53.118;17.996;2023-05-07T12:38:21;102036.63;;;24.69;24.90
75553;BME280;64136;53.118;17.996;2023-05-07T12:40:50;102032.13;;;24.67;24.33
75553;BME280;64136;53.118;17.996;2023-05-07T12:43:29;102041.98;;;22.70;24.52
75553;BME280;64136;53.118;17.996;2023-05-07T12:45:57;102043.16;;;21.80;25.93
75553;BME280;64136;53.118;17.996;2023-05-07T12:48:26;102043.38;;;22.47;26.92
75553;BME280;64136;53.118;17.996;2023-05-07T12:50:53;102048.64;;;22.17;25.64
75553;BME280;64136;53.118;17.996;2023-05-07T12:53:22;102048.77;;;21.05;27.11
75553;BME280;64136;53.118;17.996;2023-05-07T12:55:51;102048.45;;;20.65;27.68
75553;BME280;64136;53.118;17.996;2023-05-07T12:58:21;102048.17;;;19.79;28.01
75553;BME280;64136;53.118;17.996;2023-05-07T13:00:50;102047.23;;;19.18;28.99
75553;BME280;64136;53.118;17.996;2023-05-07T13:03:24;102044.70;;;20.19;28.88
75553;BME280;64136;53.118;17.996;2023-05-07T13:05:51;102042.25;;;20.14;28.53
75553;BME280;64136;53.118;17.996;2023-05-07T13:10:51;102037.98;;;21.77;25.91
75553;BME280;64136;53.118;17.996;2023-05-07T13:13:19;102041.59;;;20.82;26.51
75553;BME280;64136;53.118;17.996;2023-05-07T13:15:47;102044.11;;;20.28;26.64
75553;BME280;64136;53.118;17.996;2023-05-07T13:18:13;102035.39;;;21.68;25.02
75553;BME280;64136;53.118;17.996;2023-05-07T13:20:40;102033.14;;;23.04;24.14
75553;BME280;64136;53.118;17.996;2023-05-07T13:23:06;102036.48;;;24.15;23.25
75553;BME280;64136;53.118;17.996;2023-05-07T13:25:32;102036.07;;;24.19;22.72
75553;BME280;64136;53.118;17.996;2023-05-07T13:27:59;102028.66;;;23.26;23.19
75553;BME280;64136;53.118;17.996;2023-05-07T13:30:25;102030.63;;;23.77;23.17
75553;BME280;64136;53.118;17.996;2023-05-07T13:32:55;102032.48;;;24.04;23.16
75553;BME280;64136;53.118;17.996;2023-05-07T13:35:21;102025.63;;;25.40;22.09
75553;BME280;64136;53.118;17.996;2023-05-07T13:37:47;102023.50;;;27.08;21.81
75553;BME280;64136;53.118;17.996;2023-05-07T13:42:41;102014.61;;;28.04;20.88
75553;BME280;64136;53.118;17.996;2023-05-07T13:47:34;102020.61;;;26.02;21.72